sensor_id;sensor_type;location;lat;lon;timestamp;pressure;altitude;pressure_sealevel;temperature;humidity
57086;BME280;42964;42.910;23.792;2023-01-04T00:04:15;98627.09;;;2.30;91.38
57086;BME280;42964;42.910;23.792;2023-01-04T00:09:14;98630.41;;;2.28;91.86
57086;BME280;42964;42.910;23.792;2023-01-04T00:14:13;98638.97;;;2.28;91.65
57086;BME280;42964;42.910;23.792;2023-01-04T00:19:14;98644.44;;;2.18;91.83
57086;BME280;42964;42.910;23.792;2023-01-04T00:24:13;98638.44;;;2.17;91.91
57086;BME280;42964;42.910;23.792;2023-01-04T00:29:12;98649.22;;;2.10;92.04
57086;BME280;42964;42.910;23.792;2023-01-04T00:34:14;98656.75;;;2.07;91.78
57086;BME280;42964;42.910;23.792;2023-01-04T00:39:14;98654.94;;;2.05;92.10
57086;BME280;42964;42.910;23.792;2023-01-04T00:44:14;98658.28;;;2.04;91.97
57086;BME280;42964;42.910;23.792;2023-01-04T00:49:13;98657.13;;;1.97;92.12
57086;BME280;42964;42.910;23.792;2023-01-04T00:54:13;98647.47;;;1.91;92.11
57086;BME280;42964;42.910;23.792;2023-01-04T00:59:15;98651.72;;;1.91;92.39
57086;BME280;42964;42.910;23.792;2023-01-04T01:04:17;98658.88;;;1.80;92.50
57086;BME280;42964;42.910;23.792;2023-01-04T01:09:17;98677.31;;;1.73;92.60
57086;BME280;42964;42.910;23.792;2023-01-04T01:14:18;98673.78;;;1.71;92.33
57086;BME280;42964;42.910;23.792;2023-01-04T01:19:17;98680.38;;;1.66;92.49
57086;BME280;42964;42.910;23.792;2023-01-04T01:24:18;98675.03;;;1.61;92.14
57086;BME280;42964;42.910;23.792;2023-01-04T01:29:17;98668.06;;;1.59;92.29
57086;BME280;42964;42.910;23.792;2023-01-04T01:34:16;98672.97;;;1.54;92.40
57086;BME280;42964;42.910;23.792;2023-01-04T01:39:15;98664.25;;;1.50;92.25
57086;BME280;42964;42.910;23.792;2023-01-04T01:49:45;98659.72;;;1.45;92.58
57086;BME280;42964;42.910;23.792;2023-01-04T01:54:50;98656.53;;;1.49;92.86
57086;BME280;42964;42.910;23.792;2023-01-04T01:59:53;98649.25;;;1.40;92.98
57086;BME280;42964;42.910;23.792;2023-01-04T02:04:54;98650.63;;;1.33;93.31
57086;BME280;42964;42.910;23.792;2023-01-04T02:09:54;98642.31;;;1.38;93.17
57086;BME280;42964;42.910;23.792;2023-01-04T02:14:53;98656.06;;;1.40;93.07
57086;BME280;42964;42.910;23.792;2023-01-04T02:20:00;98649.03;;;1.36;93.34
57086;BME280;42964;42.910;23.792;2023-01-04T02:35:57;98665.88;;;1.14;93.24
57086;BME280;42964;42.910;23.792;2023-01-04T02:41:13;98665.56;;;0.92;93.42
57086;BME280;42964;42.910;23.792;2023-01-04T02:46:25;98645.44;;;0.81;93.20
57086;BME280;42964;42.910;23.792;2023-01-04T02:51:31;98654.22;;;0.86;93.34
57086;BME280;42964;42.910;23.792;2023-01-04T02:56:58;98667.56;;;0.81;93.24
57086;BME280;42964;42.910;23.792;2023-01-04T03:13:37;98661.03;;;0.69;93.49
57086;BME280;42964;42.910;23.792;2023-01-04T03:18:41;98657.59;;;0.69;93.40
57086;BME280;42964;42.910;23.792;2023-01-04T03:23:41;98660.94;;;0.68;93.42
57086;BME280;42964;42.910;23.792;2023-01-04T03:29:21;98660.06;;;0.67;93.42
57086;BME280;42964;42.910;23.792;2023-01-04T03:34:42;98660.06;;;0.67;93.63
57086;BME280;42964;42.910;23.792;2023-01-04T03:45:29;98666.47;;;0.59;93.62
57086;BME280;42964;42.910;23.792;2023-01-04T03:50:53;98674.28;;;0.62;93.59
57086;BME280;42964;42.910;23.792;2023-01-04T03:55:54;98678.56;;;0.63;93.55
57086;BME280;42964;42.910;23.792;2023-01-04T04:00:55;98675.00;;;0.60;93.61
57086;BME280;42964;42.910;23.792;2023-01-04T04:06:00;98667.47;;;0.63;93.97
57086;BME280;42964;42.910;23.792;2023-01-04T04:11:18;98664.84;;;0.61;93.84
57086;BME280;42964;42.910;23.792;2023-01-04T04:16:29;98676.34;;;0.53;94.04
57086;BME280;42964;42.910;23.792;2023-01-04T04:21:28;98687.81;;;0.45;94.12
57086;BME280;42964;42.910;23.792;2023-01-04T04:26:26;98684.13;;;0.40;93.88
57086;BME280;42964;42.910;23.792;2023-01-04T04:31:25;98689.00;;;0.35;94.08
57086;BME280;42964;42.910;23.792;2023-01-04T04:36:24;98692.34;;;0.34;94.02
57086;BME280;42964;42.910;23.792;2023-01-04T04:41:23;98702.63;;;0.36;94.11
57086;BME280;42964;42.910;23.792;2023-01-04T04:46:39;98701.84;;;0.37;94.08
57086;BME280;42964;42.910;23.792;2023-01-04T04:51:39;98714.09;;;0.27;94.25
57086;BME280;42964;42.910;23.792;2023-01-04T04:56:38;98706.28;;;0.24;94.20
57086;BME280;42964;42.910;23.792;2023-01-04T05:01:37;98714.66;;;0.22;93.93
57086;BME280;42964;42.910;23.792;2023-01-04T05:06:36;98706.97;;;0.05;93.76
57086;BME280;42964;42.910;23.792;2023-01-04T05:11:35;98734.75;;;-0.14;93.78
57086;BME280;42964;42.910;23.792;2023-01-04T05:16:52;98736.53;;;-0.43;94.45
57086;BME280;42964;42.910;23.792;2023-01-04T05:21:51;98740.06;;;-0.55;94.72
57086;BME280;42964;42.910;23.792;2023-01-04T05:26:50;98740.13;;;-0.54;95.34
57086;BME280;42964;42.910;23.792;2023-01-04T05:31:49;98736.53;;;-0.43;95.22
57086;BME280;42964;42.910;23.792;2023-01-04T05:36:48;98750.53;;;-0.36;94.65
57086;BME280;42964;42.910;23.792;2023-01-04T05:41:47;98745.84;;;-0.28;94.78
57086;BME280;42964;42.910;23.792;2023-01-04T05:47:04;98753.06;;;-0.21;94.90
57086;BME280;42964;42.910;23.792;2023-01-04T05:52:03;98759.50;;;-0.13;94.70
57086;BME280;42964;42.910;23.792;2023-01-04T05:57:02;98766.41;;;-0.25;95.15
57086;BME280;42964;42.910;23.792;2023-01-04T06:02:01;98777.88;;;-0.48;95.34
57086;BME280;42964;42.910;23.792;2023-01-04T06:07:00;98775.38;;;-0.62;95.49
57086;BME280;42964;42.910;23.792;2023-01-04T06:11:59;98778.38;;;-0.54;95.42
57086;BME280;42964;42.910;23.792;2023-01-04T06:16:58;98781.00;;;-0.52;95.65
57086;BME280;42964;42.910;23.792;2023-01-04T06:21:57;98782.44;;;-0.43;95.69
57086;BME280;42964;42.910;23.792;2023-01-04T06:26:56;98789.09;;;-0.45;95.58
57086;BME280;42964;42.910;23.792;2023-01-04T06:31:55;98795.88;;;-0.45;95.92
57086;BME280;42964;42.910;23.792;2023-01-04T06:36:54;98800.44;;;-0.40;95.60
57086;BME280;42964;42.910;23.792;2023-01-04T06:41:53;98808.31;;;-0.37;95.98
57086;BME280;42964;42.910;23.792;2023-01-04T06:46:52;98818.94;;;-0.29;95.84
57086;BME280;42964;42.910;23.792;2023-01-04T06:51:51;98813.06;;;-0.13;95.51
57086;BME280;42964;42.910;23.792;2023-01-04T06:56:50;98803.94;;;0.05;95.25
57086;BME280;42964;42.910;23.792;2023-01-04T07:01:49;98819.13;;;0.19;95.37
57086;BME280;42964;42.910;23.792;2023-01-04T07:06:48;98815.25;;;0.25;95.16
57086;BME280;42964;42.910;23.792;2023-01-04T07:11:47;98815.59;;;0.32;95.43
57086;BME280;42964;42.910;23.792;2023-01-04T07:16:46;98836.81;;;0.45;96.00
57086;BME280;42964;42.910;23.792;2023-01-04T07:21:45;98828.16;;;0.58;95.43
57086;BME280;42964;42.910;23.792;2023-01-04T07:26:44;98837.53;;;0.74;95.37
57086;BME280;42964;42.910;23.792;2023-01-04T07:31:45;98847.91;;;0.92;95.14
57086;BME280;42964;42.910;23.792;2023-01-04T07:36:46;98841.75;;;1.05;94.99
57086;BME280;42964;42.910;23.792;2023-01-04T07:41:46;98845.78;;;1.16;95.11
57086;BME280;42964;42.910;23.792;2023-01-04T07:46:46;98835.63;;;1.18;95.20
57086;BME280;42964;42.910;23.792;2023-01-04T07:51:46;98827.81;;;1.31;94.95
57086;BME280;42964;42.910;23.792;2023-01-04T07:56:46;98835.31;;;1.44;94.70
57086;BME280;42964;42.910;23.792;2023-01-04T08:01:46;98830.94;;;1.58;94.16
57086;BME280;42964;42.910;23.792;2023-01-04T08:06:46;98835.22;;;1.59;93.86
57086;BME280;42964;42.910;23.792;2023-01-04T08:11:45;98850.34;;;1.38;93.99
57086;BME280;42964;42.910;23.792;2023-01-04T08:16:44;98855.38;;;1.20;93.42
57086;BME280;42964;42.910;23.792;2023-01-04T08:21:43;98847.47;;;1.16;93.73
57086;BME280;42964;42.910;23.792;2023-01-04T08:26:43;98861.53;;;1.40;93.75
57086;BME280;42964;42.910;23.792;2023-01-04T08:31:42;98862.84;;;1.65;93.26
57086;BME280;42964;42.910;23.792;2023-01-04T08:36:49;98862.38;;;1.90;93.06
57086;BME280;42964;42.910;23.792;2023-01-04T08:41:48;98854.59;;;2.21;93.13
57086;BME280;42964;42.910;23.792;2023-01-04T08:46:51;98855.66;;;2.61;93.15
57086;BME280;42964;42.910;23.792;2023-01-04T08:51:51;98845.72;;;3.04;93.11
57086;BME280;42964;42.910;23.792;2023-01-04T08:56:50;98855.84;;;3.58;92.19
57086;BME280;42964;42.910;23.792;2023-01-04T09:01:49;98851.75;;;4.02;91.60
57086;BME280;42964;42.910;23.792;2023-01-04T09:06:48;98838.84;;;4.41;90.00
57086;BME280;42964;42.910;23.792;2023-01-04T09:11:47;98844.63;;;4.79;89.68
57086;BME280;42964;42.910;23.792;2023-01-04T09:16:45;98840.09;;;5.17;87.51
57086;BME280;42964;42.910;23.792;2023-01-04T09:21:44;98826.31;;;5.39;85.54
57086;BME280;42964;42.910;23.792;2023-01-04T09:26:44;98817.44;;;5.79;85.27
57086;BME280;42964;42.910;23.792;2023-01-04T09:31:45;98806.91;;;5.96;83.39
57086;BME280;42964;42.910;23.792;2023-01-04T09:36:45;98811.84;;;5.90;82.99
57086;BME280;42964;42.910;23.792;2023-01-04T09:47:01;98817.63;;;5.83;83.23
57086;BME280;42964;42.910;23.792;2023-01-04T09:57:16;98807.84;;;6.24;83.98
57086;BME280;42964;42.910;23.792;2023-01-04T10:02:23;98811.28;;;6.50;84.11
57086;BME280;42964;42.910;23.792;2023-01-04T10:07:25;98807.66;;;6.72;83.04
57086;BME280;42964;42.910;23.792;2023-01-04T10:39:20;98784.31;;;7.55;80.56
57086;BME280;42964;42.910;23.792;2023-01-04T10:50:00;98786.84;;;7.54;80.37
57086;BME280;42964;42.910;23.792;2023-01-04T10:54:53;98790.97;;;7.47;81.00
57086;BME280;42964;42.910;23.792;2023-01-04T11:00:04;98778.06;;;7.47;81.23
57086;BME280;42964;42.910;23.792;2023-01-04T11:10:18;98781.88;;;7.60;81.72
57086;BME280;42964;42.910;23.792;2023-01-04T11:15:19;98786.16;;;7.59;81.57
57086;BME280;42964;42.910;23.792;2023-01-04T11:20:18;98784.56;;;7.64;81.49
57086;BME280;42964;42.910;23.792;2023-01-04T11:25:18;98769.75;;;7.59;81.19
57086;BME280;42964;42.910;23.792;2023-01-04T11:30:21;98774.06;;;7.58;81.25
57086;BME280;42964;42.910;23.792;2023-01-04T11:35:43;98768.16;;;7.62;81.46
57086;BME280;42964;42.910;23.792;2023-01-04T11:41:14;98768.16;;;7.62;81.05
57086;BME280;42964;42.910;23.792;2023-01-04T11:56:25;98765.06;;;7.44;82.18
57086;BME280;42964;42.910;23.792;2023-01-04T12:01:24;98759.09;;;7.47;82.63
57086;BME280;42964;42.910;23.792;2023-01-04T12:11:44;98754.81;;;7.47;83.62
57086;BME280;42964;42.910;23.792;2023-01-04T12:21:48;98762.19;;;7.65;82.98
57086;BME280;42964;42.910;23.792;2023-01-04T12:26:49;98769.41;;;7.77;82.97
57086;BME280;42964;42.910;23.792;2023-01-04T12:37:04;98762.81;;;7.88;82.58
57086;BME280;42964;42.910;23.792;2023-01-04T12:42:07;98767.22;;;7.92;82.38
57086;BME280;42964;42.910;23.792;2023-01-04T12:52:46;98767.41;;;8.00;82.49
57086;BME280;42964;42.910;23.792;2023-01-04T12:57:46;98764.94;;;8.04;82.29
57086;BME280;42964;42.910;23.792;2023-01-04T13:02:46;98754.59;;;8.04;81.96
57086;BME280;42964;42.910;23.792;2023-01-04T13:07:53;98771.25;;;8.16;81.75
57086;BME280;42964;42.910;23.792;2023-01-04T13:17:58;98769.63;;;8.19;81.81
57086;BME280;42964;42.910;23.792;2023-01-04T13:22:57;98752.16;;;8.11;81.82
57086;BME280;42964;42.910;23.792;2023-01-04T13:28:02;98772.44;;;8.28;81.50
57086;BME280;42964;42.910;23.792;2023-01-04T13:33:19;98775.06;;;8.30;81.73
57086;BME280;42964;42.910;23.792;2023-01-04T13:38:19;98774.16;;;8.28;81.84
57086;BME280;42964;42.910;23.792;2023-01-04T13:48:33;98781.16;;;8.32;81.66
57086;BME280;42964;42.910;23.792;2023-01-04T13:53:33;98771.66;;;8.33;81.33
57086;BME280;42964;42.910;23.792;2023-01-04T13:58:33;98784.66;;;8.34;81.33
57086;BME280;42964;42.910;23.792;2023-01-04T14:03:45;98788.13;;;8.36;81.42
57086;BME280;42964;42.910;23.792;2023-01-04T14:08:55;98783.88;;;8.38;81.25
57086;BME280;42964;42.910;23.792;2023-01-04T14:13:56;98777.06;;;8.42;81.57
57086;BME280;42964;42.910;23.792;2023-01-04T14:18:55;98776.22;;;8.43;81.27
57086;BME280;42964;42.910;23.792;2023-01-04T14:23:54;98782.34;;;8.46;81.30
57086;BME280;42964;42.910;23.792;2023-01-04T14:28:53;98776.19;;;8.41;81.82
57086;BME280;42964;42.910;23.792;2023-01-04T14:33:52;98789.13;;;8.41;81.33
57086;BME280;42964;42.910;23.792;2023-01-04T14:38:56;98776.09;;;8.38;81.62
57086;BME280;42964;42.910;23.792;2023-01-04T14:48:58;98779.75;;;8.46;81.54
57086;BME280;42964;42.910;23.792;2023-01-04T14:53:57;98769.25;;;8.40;81.40
57086;BME280;42964;42.910;23.792;2023-01-04T14:58:56;98781.38;;;8.41;81.57
57086;BME280;42964;42.910;23.792;2023-01-04T15:03:55;98784.72;;;8.37;82.10
57086;BME280;42964;42.910;23.792;2023-01-04T15:08:54;98787.06;;;8.28;82.25
57086;BME280;42964;42.910;23.792;2023-01-04T15:13:53;98784.41;;;8.25;82.48
57086;BME280;42964;42.910;23.792;2023-01-04T15:18:52;98793.75;;;8.20;82.78
57086;BME280;42964;42.910;23.792;2023-01-04T15:23:51;98798.97;;;8.21;82.99
57086;BME280;42964;42.910;23.792;2023-01-04T15:28:49;98797.34;;;8.25;83.20
57086;BME280;42964;42.910;23.792;2023-01-04T15:33:49;98797.47;;;8.29;82.93
57086;BME280;42964;42.910;23.792;2023-01-04T15:38:47;98784.44;;;8.26;82.99
57086;BME280;42964;42.910;23.792;2023-01-04T15:43:46;98807.31;;;8.44;82.63
57086;BME280;42964;42.910;23.792;2023-01-04T15:48:45;98793.28;;;8.36;82.96
57086;BME280;42964;42.910;23.792;2023-01-04T15:53:44;98802.88;;;8.40;83.20
57086;BME280;42964;42.910;23.792;2023-01-04T15:58:43;98809.84;;;8.43;82.90
57086;BME280;42964;42.910;23.792;2023-01-04T16:03:42;98809.94;;;8.46;83.39
57086;BME280;42964;42.910;23.792;2023-01-04T16:08:42;98796.94;;;8.44;83.38
57086;BME280;42964;42.910;23.792;2023-01-04T16:13:42;98799.59;;;8.47;83.18
57086;BME280;42964;42.910;23.792;2023-01-04T16:18:49;98791.84;;;8.47;83.26
57086;BME280;42964;42.910;23.792;2023-01-04T16:23:49;98789.09;;;8.40;83.47
57086;BME280;42964;42.910;23.792;2023-01-04T16:28:49;98791.03;;;8.48;83.16
57086;BME280;42964;42.910;23.792;2023-01-04T16:33:52;98792.69;;;8.46;83.08
57086;BME280;42964;42.910;23.792;2023-01-04T16:38:51;98797.81;;;8.45;83.30
57086;BME280;42964;42.910;23.792;2023-01-04T16:43:53;98794.38;;;8.44;83.49
57086;BME280;42964;42.910;23.792;2023-01-04T16:49:08;98796.94;;;8.44;83.43
57086;BME280;42964;42.910;23.792;2023-01-04T16:54:09;98798.69;;;8.44;83.67
57086;BME280;42964;42.910;23.792;2023-01-04T16:59:11;98798.69;;;8.45;83.56
57086;BME280;42964;42.910;23.792;2023-01-04T17:04:11;98799.53;;;8.44;83.54
57086;BME280;42964;42.910;23.792;2023-01-04T17:09:18;98797.72;;;8.40;83.54
57086;BME280;42964;42.910;23.792;2023-01-04T17:14:17;98798.09;;;8.21;84.16
57086;BME280;42964;42.910;23.792;2023-01-04T17:19:16;98807.34;;;8.11;84.61
57086;BME280;42964;42.910;23.792;2023-01-04T17:24:15;98805.34;;;8.01;84.96
57086;BME280;42964;42.910;23.792;2023-01-04T17:29:14;98809.63;;;8.00;85.21
57086;BME280;42964;42.910;23.792;2023-01-04T17:34:14;98809.69;;;8.03;85.34
57086;BME280;42964;42.910;23.792;2023-01-04T17:39:15;98816.72;;;8.07;85.47
57086;BME280;42964;42.910;23.792;2023-01-04T17:44:14;98805.25;;;7.98;85.43
57086;BME280;42964;42.910;23.792;2023-01-04T17:49:13;98817.47;;;8.03;85.48
57086;BME280;42964;42.910;23.792;2023-01-04T17:54:12;98810.56;;;8.02;85.77
57086;BME280;42964;42.910;23.792;2023-01-04T17:59:11;98806.22;;;8.01;85.76
57086;BME280;42964;42.910;23.792;2023-01-04T18:04:10;98804.47;;;8.00;85.44
57086;BME280;42964;42.910;23.792;2023-01-04T18:09:09;98806.13;;;7.98;85.68
57086;BME280;42964;42.910;23.792;2023-01-04T18:14:09;98808.53;;;7.91;86.20
57086;BME280;42964;42.910;23.792;2023-01-04T18:19:08;98804.22;;;7.91;85.89
57086;BME280;42964;42.910;23.792;2023-01-04T18:24:07;98805.09;;;7.92;86.12
57086;BME280;42964;42.910;23.792;2023-01-04T18:29:06;98809.44;;;7.93;86.54
57086;BME280;42964;42.910;23.792;2023-01-04T18:34:05;98799.22;;;7.97;86.49
57086;BME280;42964;42.910;23.792;2023-01-04T18:39:04;98802.72;;;7.99;86.06
57086;BME280;42964;42.910;23.792;2023-01-04T18:44:03;98804.47;;;8.00;86.21
57086;BME280;42964;42.910;23.792;2023-01-04T18:49:02;98797.56;;;7.99;86.23
57086;BME280;42964;42.910;23.792;2023-01-04T18:54:02;98790.38;;;7.89;86.52
57086;BME280;42964;42.910;23.792;2023-01-04T18:59:01;98789.38;;;7.84;86.18
57086;BME280;42964;42.910;23.792;2023-01-04T19:04:01;98789.31;;;7.81;86.57
57086;BME280;42964;42.910;23.792;2023-01-04T19:09:00;98778.13;;;7.82;86.61
57086;BME280;42964;42.910;23.792;2023-01-04T19:13:59;98773.75;;;7.79;86.33
57086;BME280;42964;42.910;23.792;2023-01-04T19:18:58;98764.22;;;7.77;86.57
57086;BME280;42964;42.910;23.792;2023-01-04T19:23:58;98756.47;;;7.77;86.70
57086;BME280;42964;42.910;23.792;2023-01-04T19:28:57;98759.81;;;7.73;86.67
57086;BME280;42964;42.910;23.792;2023-01-04T19:33:56;98760.59;;;7.69;86.68
57086;BME280;42964;42.910;23.792;2023-01-04T19:38:55;98750.00;;;7.59;87.02
57086;BME280;42964;42.910;23.792;2023-01-04T19:43:54;98745.41;;;7.49;86.94
57086;BME280;42964;42.910;23.792;2023-01-04T19:48:54;98745.09;;;7.38;87.38
57086;BME280;42964;42.910;23.792;2023-01-04T19:53:53;98749.34;;;7.36;86.89
57086;BME280;42964;42.910;23.792;2023-01-04T19:58:52;98753.72;;;7.39;87.12
57086;BME280;42964;42.910;23.792;2023-01-04T20:03:51;98748.47;;;7.36;87.20
57086;BME280;42964;42.910;23.792;2023-01-04T20:08:50;98737.25;;;7.35;86.93
57086;BME280;42964;42.910;23.792;2023-01-04T20:13:49;98734.72;;;7.37;87.34
57086;BME280;42964;42.910;23.792;2023-01-04T20:18:48;98725.31;;;7.39;87.85
57086;BME280;42964;42.910;23.792;2023-01-04T20:23:47;98721.09;;;7.41;87.20
57086;BME280;42964;42.910;23.792;2023-01-04T20:28:46;98653.94;;;7.09;87.07
57086;BME280;42964;42.910;23.792;2023-01-04T20:33:47;98715.16;;;7.45;87.50
57086;BME280;42964;42.910;23.792;2023-01-04T20:38:47;98703.25;;;7.50;87.35
57086;BME280;42964;42.910;23.792;2023-01-04T20:43:47;98702.41;;;7.51;86.95
57086;BME280;42964;42.910;23.792;2023-01-04T20:48:47;98700.34;;;7.39;86.73
57086;BME280;42964;42.910;23.792;2023-01-04T20:53:46;98706.31;;;7.37;87.45
57086;BME280;42964;42.910;23.792;2023-01-04T20:58:46;98698.38;;;7.31;87.41
57086;BME280;42964;42.910;23.792;2023-01-04T21:03:46;98697.66;;;7.35;87.97
57086;BME280;42964;42.910;23.792;2023-01-04T21:08:45;98694.25;;;7.36;87.72
57086;BME280;42964;42.910;23.792;2023-01-04T21:13:44;98696.84;;;7.37;87.76
57086;BME280;42964;42.910;23.792;2023-01-04T21:18:43;98685.66;;;7.37;87.93
57086;BME280;42964;42.910;23.792;2023-01-04T21:23:43;98669.91;;;7.28;87.56
57086;BME280;42964;42.910;23.792;2023-01-04T21:28:43;98679.44;;;7.30;87.90
57086;BME280;42964;42.910;23.792;2023-01-04T21:33:44;98679.41;;;7.29;87.65
57086;BME280;42964;42.910;23.792;2023-01-04T21:38:46;98671.56;;;7.25;87.73
57086;BME280;42964;42.910;23.792;2023-01-04T21:43:45;98673.28;;;7.25;87.85
57086;BME280;42964;42.910;23.792;2023-01-04T21:48:44;98664.63;;;7.23;88.46
57086;BME280;42964;42.910;23.792;2023-01-04T21:53:43;98654.34;;;7.24;87.86
57086;BME280;42964;42.910;23.792;2023-01-04T21:58:43;98644.81;;;7.22;87.94
57086;BME280;42964;42.910;23.792;2023-01-04T22:03:42;98642.97;;;7.18;87.84
57086;BME280;42964;42.910;23.792;2023-01-04T22:08:41;98647.09;;;7.11;88.10
57086;BME280;42964;42.910;23.792;2023-01-04T22:13:41;98631.44;;;7.05;88.36
57086;BME280;42964;42.910;23.792;2023-01-04T22:18:44;98632.09;;;6.98;88.67
57086;BME280;42964;42.910;23.792;2023-01-04T22:23:43;98618.25;;;6.94;88.53
57086;BME280;42964;42.910;23.792;2023-01-04T22:28:42;98609.56;;;6.91;89.32
57086;BME280;42964;42.910;23.792;2023-01-04T22:33:41;98599.09;;;6.86;89.54
57086;BME280;42964;42.910;23.792;2023-01-04T22:38:41;98591.88;;;6.73;89.44
57086;BME280;42964;42.910;23.792;2023-01-04T22:43:41;98587.47;;;6.69;89.54
57086;BME280;42964;42.910;23.792;2023-01-04T22:48:41;98577.75;;;6.60;89.53
57086;BME280;42964;42.910;23.792;2023-01-04T22:53:39;98576.50;;;6.46;89.40
57086;BME280;42964;42.910;23.792;2023-01-04T22:58:39;98569.88;;;6.25;90.21
57086;BME280;42964;42.910;23.792;2023-01-04T23:03:40;98548.72;;;6.07;90.89
57086;BME280;42964;42.910;23.792;2023-01-04T23:08:39;98551.03;;;5.97;90.87
57086;BME280;42964;42.910;23.792;2023-01-04T23:13:39;98542.06;;;5.85;90.17
57086;BME280;42964;42.910;23.792;2023-01-04T23:18:38;98535.63;;;5.70;90.67
57086;BME280;42964;42.910;23.792;2023-01-04T23:23:38;98534.56;;;5.64;91.11
57086;BME280;42964;42.910;23.792;2023-01-04T23:28:37;98537.91;;;5.61;91.70
57086;BME280;42964;42.910;23.792;2023-01-04T23:33:36;98532.63;;;5.57;91.86
57086;BME280;42964;42.910;23.792;2023-01-04T23:38:35;98527.28;;;5.50;92.08
57086;BME280;42964;42.910;23.792;2023-01-04T23:43:34;98526.31;;;5.47;92.17
57086;BME280;42964;42.910;23.792;2023-01-04T23:48:34;98518.44;;;5.42;91.93
57086;BME280;42964;42.910;23.792;2023-01-04T23:53:33;98506.22;;;5.35;92.33
57086;BME280;42964;42.910;23.792;2023-01-04T23:58:33;98513.56;;;5.24;91.62
